• Join FlightAware (Why Join?)
  • Login
  • US Flag 
07:16AM EST


 

Airport Tracker/Info


-or-


 

Live Flight TrackerFlight Track Log ✈ TAM3756 ✈ 09-Sep-2013 ✈ SBRJ / SDU - SBCF / CNF

Flight Track Log - Related Links

Times and Time Zones

All times are in EDT time to prevent confusion due to time zone crossing. See the TAM3756 flight status page for this flight to view local times or setup timezone preferences in your user account.

Time Position Orientation Groundspeed Altitude Reporting Facility
EDT Latitude Longitude Course Direction KTS MPH feet Rate Location/Type
07:55AM -22.9100 -43.1630 129° Southeast 120 138  Level FlightAware
07:56AM -22.9010 -43.1630 360° North 143 165 100 1,080 Climbing FlightAware
07:56AM -22.8980 -43.1630 360° North 144 166 300 3,000 Climbing FlightAware
07:56AM -22.8940 -43.1600 35° Northeast 146 168 700 3,000 Climbing FlightAware
07:56AM -22.8910 -43.1550 57° Northeast 144 166 1,100 3,000 Climbing FlightAware
07:56AM -22.8900 -43.1510 75° East 145 167 1,400 1,920 Climbing FlightAware
07:56AM -22.8960 -43.1370 115° Southeast 158 182 2,000 1,800 Climbing FlightAware
07:57AM -22.9020 -43.1340 155° Southeast 164 189 2,300 1,680 Climbing FlightAware
07:57AM -22.9170 -43.1270 157° South 185 213 2,800 1,500 Climbing FlightAware
07:57AM -22.9220 -43.1220 137° Southeast 196 226 3,000 1,080 Climbing FlightAware
07:57AM -22.9250 -43.1150 115° Southeast 202 232 3,100 1,260 Climbing FlightAware
07:58AM -22.9310 -43.0940 107° East 238 274 3,600 1,620 Climbing FlightAware
07:58AM -22.9360 -43.0680 102° East 267 307 4,200 2,700 Climbing FlightAware
07:58AM -22.9400 -43.0410 99° East 271 312 5,400 3,660 Climbing FlightAware
07:58AM -22.9430 -43.0200 99° East 271 312 6,400 3,360 Climbing FlightAware
07:59AM -22.9480 -42.9920 101° East 278 320 7,500 3,300 Climbing FlightAware
07:59AM -22.9530 -42.9640 101° East 282 325 8,600 3,060 Climbing FlightAware
07:59AM -22.9560 -42.9400 98° East 290 334 9,400 2,700 Climbing FlightAware
08:00AM -22.9430 -42.9030 69° East 304 350 10,600 2,340 Climbing FlightAware
08:00AM -22.9310 -42.8910 43° Northeast 320 368 10,900 1,260 Climbing FlightAware
08:00AM -22.9090 -42.8820 21° North 340 391 11,200 1,620 Climbing FlightAware
08:01AM -22.8560 -42.8760 North 366 421 12,200 2,460 Climbing FlightAware
08:01AM -22.7890 -42.8680 North 371 427 14,100 2,040 Climbing FlightAware
08:02AM -22.7360 -42.8640 North 386 444 15,100 1,740 Climbing FlightAware
08:03AM -22.7050 -42.8740 343° North 388 447 15,900 2,460 Climbing FlightAware
08:03AM -22.6500 -42.9010 336° Northwest 402 463 17,100 2,460 Climbing FlightAware
08:04AM -22.5940 -42.9270 337° Northwest 401 461 18,600 2,580 Climbing FlightAware
08:04AM -22.5240 -42.9590 337° Northwest 402 463 20,300 2,220 Climbing FlightAware
08:05AM -22.4670 -42.9850 337° Northwest 412 474 21,400 2,160 Climbing FlightAware
08:05AM -22.3970 -43.0170 337° Northwest 415 478 22,900 2,220 Climbing FlightAware
08:06AM -22.3230 -43.0510 337° Northwest 417 480 24,400 2,160 Climbing FlightAware
08:07AM -22.2700 -43.0750 337° Northwest 412 474 25,600 2,640 Climbing FlightAware
08:07AM -22.1840 -43.1140 337° Northwest 411 473 27,400 2,460 Climbing FlightAware
08:08AM -22.1190 -43.1440 337° Northwest 413 475 28,600 1,260 Climbing FlightAware
08:09AM -22.0550 -43.1730 337° Northwest 415 478 29,000 300 Climbing FlightAware
08:09AM -21.9970 -43.1990 337° Northwest 415 478 29,000  Level FlightAware
08:10AM -21.9340 -43.2270 338° Northwest 414 476 29,000  Level FlightAware
08:10AM -21.8740 -43.2540 337° Northwest 415 478 29,000  Level FlightAware
08:11AM -21.8130 -43.2820 337° Northwest 416 479 29,000  Level FlightAware
08:11AM -21.7560 -43.3080 337° Northwest 416 479 29,000  Level FlightAware
08:12AM -21.7050 -43.3310 337° Northwest 416 479 29,000  Level FlightAware
08:13AM -21.6310 -43.3640 337° Northwest 417 480 29,000  Level FlightAware
08:13AM -21.5750 -43.3890 337° Northwest 417 480 29,000  Level FlightAware
08:14AM -21.4920 -43.4260 337° Northwest 417 480 29,000  Level FlightAware
08:15AM -21.4080 -43.4640 337° Northwest 415 478 29,000  Level FlightAware
08:15AM -21.3530 -43.4890 337° Northwest 413 475 29,000  Level FlightAware
08:16AM -21.2810 -43.5210 338° Northwest 411 473 29,000  Level FlightAware
08:16AM -21.2220 -43.5470 338° Northwest 409 471 29,000  Level FlightAware
08:17AM -21.1660 -43.5730 337° Northwest 408 470 29,000  Level FlightAware
08:17AM -21.1080 -43.5980 338° Northwest 408 470 29,000  Level FlightAware
08:18AM -21.0360 -43.6300 337° Northwest 409 471 29,000  Level FlightAware
08:19AM -20.9790 -43.6560 337° Northwest 410 472 29,000  Level FlightAware
08:19AM -20.9220 -43.6810 338° Northwest 411 473 29,000  Level FlightAware
08:20AM -20.8550 -43.7110 337° Northwest 411 473 29,000  Level FlightAware
08:20AM -20.8000 -43.7360 337° Northwest 411 473 29,000 -1,680 Level FlightAware
08:21AM -20.7230 -43.7700 338° Northwest 422 486 27,000 -2,760 Descending FlightAware
08:22AM -20.6590 -43.7980 338° Northwest 412 474 25,700 -2,220 Descending FlightAware
08:22AM -20.6330 -43.8080 340° North 409 471 25,200 -1,920 Descending FlightAware
08:22AM -20.6040 -43.8120 353° North 406 467 24,800 -1,020 Descending FlightAware
08:22AM -20.5670 -43.8070 North 402 463 24,600 -900 Descending FlightAware
08:23AM -20.4990 -43.7970 North 399 459 24,000 -960 Descending FlightAware
08:24AM -20.4330 -43.7870 North 396 456 23,500 -900 Descending FlightAware
08:24AM -20.3760 -43.7790 North 390 449 23,000 -900 Descending FlightAware
08:25AM -20.3110 -43.7690 North 382 440 22,500 -840 Descending FlightAware
08:25AM -20.2480 -43.7590 North 380 437 22,000 -840 Descending FlightAware
08:26AM -20.1850 -43.7500 North 377 434 21,500 -840 Descending FlightAware
08:27AM -20.1330 -43.7430 North 374 430 21,100 -900 Descending FlightAware
08:27AM -20.0680 -43.7370 North 372 428 20,500 -900 Descending FlightAware
08:28AM -20.0060 -43.7310 North 370 426 20,000 -840 Descending FlightAware
08:28AM -19.9520 -43.7250 North 369 425 19,600 -840 Descending FlightAware
08:29AM -19.8900 -43.7190 North 367 422 19,100 -840 Descending FlightAware
08:29AM -19.8300 -43.7120 North 364 419 18,600 -780 Descending FlightAware
08:30AM -19.7710 -43.7060 North 361 415 18,200 -780 Descending FlightAware
08:31AM -19.7170 -43.7010 North 359 413 17,700 -780 Descending FlightAware
08:31AM -19.6520 -43.6940 North 354 407 17,200 -900 Descending FlightAware
08:32AM -19.6100 -43.7080 343° North 330 380 16,700 -1,860 Descending FlightAware
08:32AM -19.5660 -43.7540 315° West 331 381 15,300 -2,880 Descending FlightAware
08:33AM -19.5260 -43.7950 316° Northwest 359 413 13,300 -3,540 Descending FlightAware
08:34AM -19.4770 -43.8450 316° Northwest 372 428 11,000 -3,240 Descending FlightAware
08:34AM -19.4660 -43.8570 314° West 374 430 10,500 -1,680 Descending FlightAware
08:34AM -19.4490 -43.8980 294° West 342 394 10,000 -1,140 Descending FlightAware
08:35AM -19.4440 -43.9300 279° West 314 361 9,700 -1,380 Descending FlightAware
08:35AM -19.4400 -43.9590 278° West 302 348 9,100 -1,860 Descending FlightAware
08:35AM -19.4340 -43.9960 280° West 290 334 8,300 -1,440 Descending FlightAware
08:36AM -19.4290 -44.0350 278° West 264 304 7,800 -1,260 Descending FlightAware
08:36AM -19.4310 -44.0470 260° West 257 296 7,500 -2,160 Descending FlightAware
08:36AM -19.4350 -44.0540 239° Southwest 255 293 7,300 -2,040 Descending FlightAware
08:36AM -19.4370 -44.0560 223° Southwest 252 290 7,200 -1,620 Descending FlightAware
08:36AM -19.4480 -44.0650 218° Southwest 247 284 6,900 -1,620 Descending FlightAware
08:37AM -19.4610 -44.0720 207° Southwest 237 273 6,500 -1,320 Descending FlightAware
08:37AM -19.4810 -44.0840 209° Southwest 223 257 6,100 -1,200 Descending FlightAware
08:37AM -19.4850 -44.0860 205° Southwest 220 253 6,000 -1,200 Descending FlightAware
08:37AM -19.4930 -44.0870 187° South 216 249 5,900 -1,440 Descending FlightAware
08:37AM -19.5090 -44.0810 161° South 201 231 5,400 -1,620 Descending FlightAware
08:38AM -19.5170 -44.0750 145° Southeast 201 231 5,100 -1,800 Descending FlightAware
08:38AM -19.5240 -44.0690 141° Southeast 199 229 4,800 -1,080 Descending FlightAware
08:38AM -19.5400 -44.0560 143° Southeast 168 193 4,500 -840 Descending FlightAware
08:39AM -19.5530 -44.0440 139° Southeast 155 178 4,200 -900 Descending FlightAware
08:39AM -19.5620 -44.0350 137° Southeast 148 170 3,900 -780 Descending FlightAware
08:39AM -19.5710 -44.0270 140° Southeast 150 173 3,700 -720 Descending FlightAware
08:40AM -19.5850 -44.0140 139° Southeast 149 171 3,400 -840 Descending FlightAware
08:40AM -19.5990 -44.0010 139° Southeast 141 162 3,000 -840 Descending FlightAware
08:40AM -19.6100 -43.9900 137° Southeast 143 165 2,700 -720 Descending FlightAware
08:41AM -19.6240 -43.9770 139° Southeast 142 163 2,400 -720 Descending FlightAware